createdAt,value
2018-07-12T06:15:19.384Z,11.37
2018-07-12T06:17:48.239Z,11.63
2018-07-12T06:20:18.177Z,10.20
2018-07-12T06:22:46.978Z,10.20
2018-07-12T06:25:15.904Z,10.97
2018-07-12T06:27:44.686Z,9.53
2018-07-12T06:30:14.540Z,11.73
2018-07-12T06:32:43.418Z,10.17
2018-07-12T06:35:12.353Z,10.60
2018-07-12T06:37:45.087Z,10.63
2018-07-12T06:40:14.184Z,10.93
2018-07-12T06:42:43.137Z,10.13
2018-07-12T06:45:13.989Z,10.03
2018-07-12T06:47:49.085Z,10.03
2018-07-12T06:50:17.999Z,11.07
2018-07-12T06:52:48.070Z,10.27
2018-07-12T06:55:17.680Z,11.03
2018-07-12T06:57:50.793Z,9.67
2018-07-12T07:00:20.104Z,10.23
2018-07-12T07:02:50.836Z,9.57
2018-07-12T07:05:19.727Z,9.43
2018-07-12T07:07:48.572Z,10.13
2018-07-12T07:10:17.342Z,9.67
2018-07-12T07:12:46.286Z,9.53
2018-07-12T07:15:15.152Z,9.90
2018-07-12T07:17:44.243Z,9.60
2018-07-12T07:20:13.225Z,9.03
2018-07-12T07:22:42.210Z,8.27
2018-07-12T07:25:11.071Z,8.13
2018-07-12T07:27:40.002Z,8.50
2018-07-12T07:30:08.941Z,8.00
2018-07-12T07:32:37.678Z,7.37
2018-07-12T07:35:06.833Z,7.10
2018-07-12T07:37:35.643Z,7.23
2018-07-12T07:40:04.432Z,7.27
2018-07-12T07:42:33.307Z,7.77
2018-07-12T07:45:02.191Z,7.90
2018-07-12T07:47:31.401Z,7.07
2018-07-12T07:50:00.112Z,6.50
2018-07-12T07:52:29.025Z,6.87
2018-07-12T07:54:57.772Z,6.83
2018-07-12T07:57:26.525Z,6.83
2018-07-12T07:59:55.306Z,6.70
2018-07-12T08:02:24.112Z,6.57
2018-07-12T08:04:52.829Z,6.77
2018-07-12T08:07:21.587Z,6.60
2018-07-12T08:09:50.325Z,7.13
2018-07-12T08:12:19.121Z,6.90
2018-07-12T08:14:47.939Z,6.67
2018-07-12T08:17:16.659Z,6.63
2018-07-12T08:19:45.417Z,6.40
2018-07-12T08:22:14.080Z,6.57
2018-07-12T08:24:42.772Z,5.83
2018-07-12T08:27:11.476Z,6.27
2018-07-12T08:29:39.857Z,6.87
2018-07-12T08:32:08.548Z,6.00
2018-07-12T08:34:37.234Z,6.10
2018-07-12T08:37:06.205Z,6.20
2018-07-12T08:39:35.379Z,6.63
2018-07-12T08:42:04.424Z,6.53
2018-07-12T08:44:33.115Z,5.90
2018-07-12T08:47:01.820Z,5.93
2018-07-12T08:49:30.595Z,5.97
2018-07-12T08:51:59.310Z,5.50
2018-07-12T08:54:28.382Z,5.90
2018-07-12T08:56:57.147Z,5.67
2018-07-12T08:59:25.851Z,6.40
2018-07-12T09:01:54.555Z,5.67
2018-07-12T09:04:23.276Z,6.00
2018-07-12T09:06:52.010Z,4.77
2018-07-12T09:09:20.782Z,6.20
2018-07-12T09:11:49.534Z,6.00
2018-07-12T09:14:18.363Z,5.57
2018-07-12T09:16:47.132Z,6.37
2018-07-12T09:19:15.903Z,5.17
2018-07-12T09:21:44.626Z,6.13
2018-07-12T09:24:13.479Z,5.80
2018-07-12T09:26:42.238Z,6.40
2018-07-12T09:29:10.965Z,5.83
2018-07-12T09:31:39.840Z,5.90
2018-07-12T09:34:08.525Z,6.20
2018-07-12T09:36:37.235Z,6.00
2018-07-12T09:39:06.079Z,6.93
2018-07-12T09:41:34.984Z,6.20
2018-07-12T09:44:03.687Z,6.60
2018-07-12T09:46:32.472Z,7.43
2018-07-12T09:49:01.223Z,6.83
2018-07-12T09:51:30.172Z,7.07
2018-07-12T09:53:58.918Z,5.30
2018-07-12T09:56:39.091Z,5.77
2018-07-12T09:59:08.072Z,5.63
2018-07-12T10:02:42.883Z,4.90
2018-07-12T10:06:14.785Z,6.10
2018-07-12T10:08:49.046Z,5.40
2018-07-12T10:11:23.269Z,5.00
2018-07-12T10:15:00.444Z,5.10
2018-07-12T10:17:34.831Z,4.70
2018-07-12T10:20:05.147Z,4.63
2018-07-12T10:22:33.944Z,4.53
2018-07-12T10:25:02.856Z,4.67
2018-07-12T10:27:31.670Z,5.13
2018-07-12T10:30:00.574Z,5.70
2018-07-12T10:32:29.396Z,4.97
2018-07-12T10:34:58.242Z,5.30
2018-07-12T10:37:27.075Z,4.87
2018-07-12T10:39:55.875Z,4.80
2018-07-12T10:42:24.714Z,5.20
2018-07-12T10:44:53.509Z,4.80
2018-07-12T10:47:22.208Z,4.60
2018-07-12T10:49:50.966Z,4.53
2018-07-12T10:52:19.694Z,4.60
2018-07-12T10:54:48.408Z,4.67
2018-07-12T10:57:17.276Z,4.47
2018-07-12T10:59:45.976Z,4.13
2018-07-12T11:02:14.692Z,4.30
2018-07-12T11:04:43.393Z,4.07
2018-07-12T11:07:12.123Z,4.50
2018-07-12T11:09:40.818Z,4.80
2018-07-12T11:12:09.529Z,4.17
2018-07-12T11:14:38.274Z,4.10
2018-07-12T11:17:06.966Z,4.53
2018-07-12T11:19:35.737Z,4.73
2018-07-12T11:22:04.523Z,4.30
2018-07-12T11:24:33.245Z,3.80
2018-07-12T11:27:01.915Z,4.43
2018-07-12T11:29:42.275Z,4.47
2018-07-12T11:32:10.990Z,4.17
2018-07-12T11:34:39.705Z,3.33
2018-07-12T11:37:09.466Z,5.07
2018-07-12T11:39:38.314Z,4.20
2018-07-12T11:42:07.004Z,4.23
2018-07-12T11:44:35.699Z,4.70
2018-07-12T11:47:04.427Z,4.57
2018-07-12T11:49:33.123Z,4.67
2018-07-12T11:52:01.831Z,4.40
2018-07-12T11:54:30.608Z,4.77
2018-07-12T11:56:59.310Z,4.60
2018-07-12T11:59:28.003Z,4.63
2018-07-12T12:01:56.812Z,4.50
2018-07-12T12:04:25.639Z,4.30
2018-07-12T12:06:54.573Z,4.77
2018-07-12T12:09:23.506Z,4.50
2018-07-12T12:11:52.186Z,4.17
2018-07-12T12:14:20.876Z,5.47
2018-07-12T12:16:49.599Z,4.87
2018-07-12T12:19:18.365Z,4.27
2018-07-12T12:21:47.226Z,4.53
2018-07-12T12:24:16.338Z,5.67
2018-07-12T12:26:45.043Z,4.20
2018-07-12T12:29:13.738Z,4.67
2018-07-12T12:31:42.435Z,5.60
2018-07-12T12:34:11.143Z,4.50
2018-07-12T12:36:39.831Z,4.77
2018-07-12T12:39:08.554Z,4.67
2018-07-12T12:41:37.252Z,5.03
2018-07-12T12:44:06.027Z,4.50
2018-07-12T12:46:34.734Z,4.50
2018-07-12T12:49:03.447Z,4.60
2018-07-12T12:51:32.131Z,4.47
2018-07-12T12:54:00.820Z,4.97
2018-07-12T12:56:29.520Z,5.73
2018-07-12T12:58:58.267Z,5.10
2018-07-12T13:01:26.941Z,5.23
2018-07-12T13:03:55.635Z,5.10
2018-07-12T13:06:24.335Z,4.90
2018-07-12T13:08:53.035Z,4.87
2018-07-12T13:11:21.733Z,4.30
2018-07-12T13:13:50.424Z,4.40
2018-07-12T13:16:19.152Z,3.97
2018-07-12T13:18:48.527Z,4.50
2018-07-12T13:21:17.223Z,4.50
2018-07-12T13:23:46.108Z,4.63
2018-07-12T13:26:14.823Z,4.70
2018-07-12T13:28:43.534Z,4.60
2018-07-12T13:31:12.258Z,4.40
2018-07-12T13:33:40.980Z,5.00
2018-07-12T13:36:09.667Z,4.97
2018-07-12T13:38:38.366Z,4.50
2018-07-12T13:41:07.300Z,4.80
2018-07-12T13:43:36.081Z,4.77
2018-07-12T13:46:04.779Z,5.43
2018-07-12T13:48:33.188Z,4.63
2018-07-12T13:51:01.901Z,5.10
2018-07-12T13:53:30.621Z,5.27
2018-07-12T13:55:59.308Z,5.10
2018-07-12T13:58:28.355Z,5.03
2018-07-12T14:00:57.106Z,5.20
2018-07-12T14:03:25.901Z,4.47
2018-07-12T14:05:54.613Z,5.03
2018-07-12T14:08:23.314Z,4.57
2018-07-12T14:10:52.010Z,4.40
2018-07-12T14:13:20.977Z,4.43
2018-07-12T14:15:56.740Z,5.00
2018-07-12T14:18:25.435Z,5.10
2018-07-12T14:20:54.094Z,4.33
2018-07-12T14:23:22.811Z,4.70
2018-07-12T14:25:51.500Z,4.83
2018-07-12T14:28:20.207Z,5.00
2018-07-12T14:30:48.898Z,4.27
2018-07-12T14:33:17.596Z,4.37
2018-07-12T14:35:46.456Z,5.00
2018-07-12T14:38:15.152Z,4.73
2018-07-12T14:40:43.851Z,4.63
2018-07-12T14:43:12.527Z,3.93
2018-07-12T14:45:41.211Z,4.63
2018-07-12T14:48:09.918Z,4.93
2018-07-12T14:50:38.615Z,4.00
2018-07-12T14:53:07.368Z,4.57
2018-07-12T14:55:36.054Z,4.17
2018-07-12T14:58:05.195Z,4.47
2018-07-12T15:00:33.912Z,3.90
2018-07-12T15:03:02.609Z,4.90
2018-07-12T15:05:31.296Z,4.37
2018-07-12T15:07:59.967Z,4.80
2018-07-12T15:10:28.662Z,4.67
2018-07-12T15:12:57.334Z,4.63
2018-07-12T15:15:26.067Z,4.00
2018-07-12T15:17:54.831Z,4.90
2018-07-12T15:20:23.570Z,5.10
2018-07-12T15:22:52.764Z,4.83
2018-07-12T15:25:21.495Z,4.87
2018-07-12T15:27:50.233Z,4.50
2018-07-12T15:30:19.107Z,4.03
2018-07-12T15:32:47.806Z,4.23
2018-07-12T15:35:16.519Z,4.97
2018-07-12T15:37:45.343Z,4.73
2018-07-12T15:40:14.044Z,4.73
2018-07-12T15:42:42.736Z,4.40
2018-07-12T15:45:11.484Z,4.40
2018-07-12T15:47:40.271Z,4.80
2018-07-12T15:50:09.092Z,4.57
2018-07-12T15:52:37.959Z,4.63
2018-07-12T15:55:07.098Z,4.90
2018-07-12T15:57:35.843Z,5.00
2018-07-12T16:00:04.896Z,4.83
2018-07-12T16:02:33.595Z,4.77
2018-07-12T16:05:02.369Z,4.60
2018-07-12T16:07:31.055Z,4.83
2018-07-12T16:10:00.101Z,4.77
2018-07-12T16:12:28.890Z,4.23
2018-07-12T16:14:57.575Z,4.37
2018-07-12T16:17:26.266Z,4.03
2018-07-12T16:19:55.030Z,3.73
2018-07-12T16:22:23.800Z,4.33
2018-07-12T16:24:52.737Z,4.63
2018-07-12T16:27:21.711Z,3.70
2018-07-12T16:29:50.504Z,4.63
2018-07-12T16:32:19.373Z,4.50
2018-07-12T16:34:48.171Z,4.73
2018-07-12T16:37:16.965Z,4.33
2018-07-12T16:39:46.048Z,5.37
2018-07-12T16:42:14.793Z,5.17
2018-07-12T16:44:43.745Z,5.47
2018-07-12T16:47:13.320Z,5.37
2018-07-12T16:49:42.019Z,5.43
2018-07-12T16:52:10.731Z,4.80
2018-07-12T16:54:39.534Z,4.83
2018-07-12T16:57:08.516Z,5.07
2018-07-12T16:59:37.259Z,4.83
2018-07-12T17:02:06.027Z,4.93
2018-07-12T17:04:34.740Z,5.03
2018-07-12T17:07:03.455Z,5.70
2018-07-12T17:09:32.176Z,6.23
2018-07-12T17:12:01.072Z,5.90
2018-07-12T17:14:29.878Z,5.60
2018-07-12T17:16:58.947Z,4.87
2018-07-12T17:19:30.710Z,4.97
2018-07-12T17:21:59.840Z,4.50
2018-07-12T17:24:31.076Z,5.00
2018-07-12T17:27:00.272Z,5.80
2018-07-12T17:29:29.331Z,5.50
2018-07-12T17:31:58.243Z,5.30
2018-07-12T17:34:27.384Z,4.53
2018-07-12T17:36:56.377Z,5.17
2018-07-12T17:39:25.324Z,5.47
2018-07-12T17:41:54.160Z,5.90
2018-07-12T17:44:23.007Z,5.30
2018-07-12T17:46:52.447Z,6.27
2018-07-12T17:49:21.377Z,6.37
2018-07-12T17:51:50.375Z,6.07
2018-07-12T17:54:19.378Z,5.47
2018-07-12T17:56:48.372Z,5.47
2018-07-12T17:59:17.703Z,6.43
2018-07-12T18:01:48.305Z,7.30
2018-07-12T18:04:17.142Z,6.67
2018-07-12T18:06:46.062Z,7.10
2018-07-12T18:09:15.179Z,7.33
2018-07-12T18:11:44.380Z,7.00
2018-07-12T18:14:13.322Z,7.47
2018-07-12T18:16:42.576Z,6.03
2018-07-12T18:19:11.559Z,5.97
2018-07-12T18:21:40.907Z,5.67
2018-07-12T18:24:10.092Z,5.60
2018-07-12T18:26:40.181Z,6.30
2018-07-12T18:29:09.559Z,5.07
2018-07-12T18:31:44.624Z,5.03
2018-07-12T18:34:14.729Z,5.87
2018-07-12T18:36:44.587Z,4.80
2018-07-12T18:39:13.518Z,5.63
2018-07-12T18:41:42.319Z,6.03
2018-07-12T18:44:11.386Z,6.00
2018-07-12T18:46:41.499Z,5.90
2018-07-12T18:49:10.631Z,6.03
2018-07-12T18:51:39.646Z,5.13
2018-07-12T18:54:08.679Z,5.60
2018-07-12T18:56:38.452Z,6.50
2018-07-12T18:59:07.435Z,5.50
2018-07-12T19:01:43.398Z,5.23
2018-07-12T19:04:12.394Z,5.73
2018-07-12T19:06:41.439Z,5.37
2018-07-12T19:09:11.064Z,4.60
2018-07-12T19:11:40.151Z,5.60
2018-07-12T19:14:09.451Z,5.77
2018-07-12T19:16:38.851Z,5.27
2018-07-12T19:19:07.831Z,5.83
2018-07-12T19:21:37.241Z,5.50
2018-07-12T19:24:06.888Z,6.97
2018-07-12T19:26:35.659Z,6.10
2018-07-12T19:29:05.058Z,5.60
2018-07-12T19:31:34.180Z,6.20
2018-07-12T19:34:06.370Z,5.90
2018-07-12T19:36:34.906Z,5.60
2018-07-12T19:39:05.064Z,6.70
2018-07-12T19:41:34.232Z,6.53
2018-07-12T19:44:11.948Z,6.43
2018-07-12T19:46:41.020Z,5.83
2018-07-12T19:49:14.078Z,5.97
2018-07-12T19:51:50.347Z,5.53
2018-07-12T19:54:19.337Z,5.90
2018-07-12T19:56:50.277Z,5.67
2018-07-12T19:59:22.747Z,6.03
2018-07-12T20:01:53.451Z,6.20
2018-07-12T20:04:23.592Z,6.23
2018-07-12T20:06:55.045Z,5.77
2018-07-12T20:09:24.282Z,6.33
2018-07-12T20:12:00.653Z,6.53
2018-07-12T20:14:29.866Z,6.40
2018-07-12T20:16:59.918Z,5.20
2018-07-12T20:19:33.932Z,6.57
2018-07-12T20:22:03.237Z,6.40
2018-07-12T20:24:34.396Z,5.50
2018-07-12T20:27:05.204Z,6.00
2018-07-12T20:29:35.003Z,5.53
2018-07-12T20:32:06.304Z,5.23
2018-07-12T20:34:45.318Z,6.17
